Portada
METAR-TAF:

METAR-TAF

Aeroports :

Bintulu, Malàisia

latitud: 03-12N, longitud: 113-02E, altitud: 2 m

Observació

L'informe es va fer fa 1 hora i 8 minuts, a les 14:00 UTC
Vent 3 kt del Est, variant entre Nord/Nord-Est i Est/Sud-Est
Temperatura 26°C
Humitat 89%
Pressió 1011 hPa
Visibilitat 10 km o més
Núvols disperses a una alçada de 1600 ft

METAR: WBGB 241400Z 08003KT 030V120 9999 SCT016 26/24 Q1011

Hora: 23:08 (15:08 UTC)

Pronòstic

L'informe es va fer fa 4 hores i 8 minuts, a les 11:00 UTC
Pronòstic vàlid del 24 a les 12 UTC al 25 a les 12 UTC
Vent 5 kt del Est/Sud-Est
Visibilitat 10 km o més
Escasses núvols a una alçada de 1600 ft
Temporalment
l' 24 a les 12 UTC al 24 a les 14 UTC
Visibilitat: 3000 m
Núvols disperses a una alçada de 1400 ft
Escasses núvols a una alçada de 1500 ft, Cumulonimbus.
tempesta, pluja

TAF: WBGB 241100Z 2412/2512 11005KT 9999 FEW016 TEMPO 2412/2414 3000 TSRA SCT014 FEW015CB

Observacions i pronòstics meteorològics de més de 4000 aeroports (METAR i TAF).

Les estacions disponibles són els punts grocs i vermells al mapa.

Posi el ratolí al punt desitjat per veure el nom de l'estació.

Feu clic per veure les observacions i els pronòstics meteorològics.

Per canviar el mapa: feu clic els botons verds amb una creu de color negre per apropar; al botó verd amb un guió per allunyar la imatge; o en les fletxes verdes per a mapes adjacents.


METAR-TAF: